Time;durP1;ratioP1;P1;durP2;ratioP2;P2;SDS_P1;SDS_P2;PMS_P1;PMS_P2;Temp;Humidity;BMP_temperature;BMP_pressure;BME280_temperature;BME280_humidity;BME280_pressure;Samples;Min_cycle;Max_cycle;Signal;HPM_P1;HPM_P2
2021/12/08 00:01:19;;;;;;;4.10;2.60;;;;;;;;;;5027784;28;20602;-63
2021/12/08 00:03:45;;;;;;;6.93;2.20;;;;;;;;;;5029568;28;20329;-62
2021/12/08 00:06:11;;;;;;;4.70;2.90;;;;;;;;;;5041118;28;20688;-62
2021/12/08 00:08:38;;;;;;;4.87;2.27;;;;;;;;;;5038045;28;20244;-63
2021/12/08 00:13:48;;;;;;;5.00;2.60;;;;;;;;;;5049768;28;20346;-63
2021/12/08 00:16:14;;;;;;;5.03;2.33;;;;;;;;;;5049781;28;20227;-63
2021/12/08 00:18:47;;;;;;;3.17;2.20;;;;;;;;;;5049015;28;20658;-62
2021/12/08 00:21:13;;;;;;;5.80;2.57;;;;;;;;;;5035018;28;20981;-62
2021/12/08 00:23:39;;;;;;;5.07;2.50;;;;;;;;;;5028115;28;20324;-62
2021/12/08 00:26:05;;;;;;;8.43;2.80;;;;;;;;;;5036702;28;20618;-62
2021/12/08 00:28:31;;;;;;;8.90;2.60;;;;;;;;;;5034035;28;20241;-61
2021/12/08 00:30:58;;;;;;;5.87;2.60;;;;;;;;;;5032923;28;20231;-62
2021/12/08 00:33:24;;;;;;;7.10;2.50;;;;;;;;;;5022127;28;20688;-63
2021/12/08 00:35:52;;;;;;;5.60;2.57;;;;;;;;;;5042356;28;20239;-63
2021/12/08 00:38:18;;;;;;;5.67;2.60;;;;;;;;;;5025381;28;20242;-62
2021/12/08 00:40:44;;;;;;;5.50;2.80;;;;;;;;;;5037844;28;20842;-62
2021/12/08 00:43:10;;;;;;;8.63;2.60;;;;;;;;;;5047765;28;20230;-62
2021/12/08 00:45:36;;;;;;;4.63;2.47;;;;;;;;;;5046641;28;20265;-63
2021/12/08 00:48:02;;;;;;;3.57;2.37;;;;;;;;;;5060346;28;20369;-63
2021/12/08 00:50:29;;;;;;;3.73;2.40;;;;;;;;;;5049261;28;20840;-64
2021/12/08 00:52:57;;;;;;;4.70;2.20;;;;;;;;;;5050617;28;20238;-63
2021/12/08 00:55:22;;;;;;;6.90;2.53;;;;;;;;;;5035234;28;20242;-63
2021/12/08 00:57:48;;;;;;;6.30;2.53;;;;;;;;;;5039644;28;20236;-63
2021/12/08 01:00:35;;;;;;;6.73;2.60;;;;;;;;;;5030255;28;20235;-63
2021/12/08 01:03:01;;;;;;;6.13;2.77;;;;;;;;;;5034331;28;20231;-62
2021/12/08 01:05:28;;;;;;;5.57;2.30;;;;;;;;;;5045733;28;20222;-63
2021/12/08 01:07:54;;;;;;;3.27;2.20;;;;;;;;;;5052463;28;20234;-63
2021/12/08 01:10:25;;;;;;;6.10;2.60;;;;;;;;;;5030554;28;20227;-63
2021/12/08 01:12:51;;;;;;;5.43;2.63;;;;;;;;;;5046659;28;20240;-63
2021/12/08 01:15:17;;;;;;;7.13;2.10;;;;;;;;;;5055467;28;20243;-63
2021/12/08 01:17:43;;;;;;;5.10;2.50;;;;;;;;;;5044843;28;20718;-63
2021/12/08 01:20:10;;;;;;;3.53;2.03;;;;;;;;;;5028935;28;20243;-64
2021/12/08 01:22:37;;;;;;;2.90;1.83;;;;;;;;;;5029327;28;20274;-63
2021/12/08 01:25:03;;;;;;;3.27;2.07;;;;;;;;;;5025124;28;21099;-63
2021/12/08 01:27:31;;;;;;;2.83;1.90;;;;;;;;;;5036526;28;20231;-63
2021/12/08 01:29:56;;;;;;;3.67;1.77;;;;;;;;;;5032450;28;20235;-62
2021/12/08 01:32:23;;;;;;;3.60;2.10;;;;;;;;;;5031800;28;20315;-62
2021/12/08 01:34:49;;;;;;;2.77;1.70;;;;;;;;;;5030276;28;20242;-62
2021/12/08 01:37:15;;;;;;;2.87;1.67;;;;;;;;;;5032714;28;20267;-64
2021/12/08 01:39:41;;;;;;;2.37;1.60;;;;;;;;;;5047240;28;20287;-62
2021/12/08 01:42:15;;;;;;;2.03;1.50;;;;;;;;;;5052445;28;20251;-63
2021/12/08 01:47:27;;;;;;;3.37;1.70;;;;;;;;;;5047084;28;20605;-63
2021/12/08 01:49:53;;;;;;;1.87;1.50;;;;;;;;;;5054497;28;20253;-62
2021/12/08 01:52:20;;;;;;;1.93;1.30;;;;;;;;;;5032023;28;20859;-64
2021/12/08 01:54:46;;;;;;;2.07;1.60;;;;;;;;;;5023796;28;20375;-63
2021/12/08 01:57:12;;;;;;;1.80;1.60;;;;;;;;;;5036738;28;20720;-63
2021/12/08 01:59:38;;;;;;;2.70;1.50;;;;;;;;;;5036320;28;20608;-64
2021/12/08 02:02:04;;;;;;;1.83;1.60;;;;;;;;;;5047495;28;20262;-64
2021/12/08 02:04:30;;;;;;;1.40;1.30;;;;;;;;;;5035597;28;20258;-63
2021/12/08 02:06:57;;;;;;;2.33;1.47;;;;;;;;;;5036693;28;20227;-63
2021/12/08 02:09:23;;;;;;;2.30;1.40;;;;;;;;;;5039915;28;20345;-63
2021/12/08 02:11:53;;;;;;;1.67;1.30;;;;;;;;;;5034833;28;20292;-62
2021/12/08 02:14:19;;;;;;;1.93;1.50;;;;;;;;;;5038104;28;20243;-63
2021/12/08 02:16:46;;;;;;;1.40;1.30;;;;;;;;;;5034825;28;20238;-62
2021/12/08 02:19:12;;;;;;;1.93;1.30;;;;;;;;;;5047980;28;20238;-63
2021/12/08 02:21:39;;;;;;;1.57;1.47;;;;;;;;;;5049692;28;20248;-63
2021/12/08 02:24:06;;;;;;;1.93;1.30;;;;;;;;;;5038874;28;20238;-63
2021/12/08 02:26:32;;;;;;;1.30;1.20;;;;;;;;;;5048012;28;20719;-62
2021/12/08 02:28:58;;;;;;;1.50;1.40;;;;;;;;;;5043008;28;20237;-63
2021/12/08 02:31:36;;;;;;;2.70;1.47;;;;;;;;;;5042442;28;20694;-64
2021/12/08 02:47:53;;;;;;;1.70;1.40;;;;;;;;;;5035774;28;20296;-63
2021/12/08 02:50:20;;;;;;;2.40;1.40;;;;;;;;;;5044051;28;20234;-63
2021/12/08 02:52:46;;;;;;;1.50;1.40;;;;;;;;;;5034265;28;20222;-63
2021/12/08 02:55:12;;;;;;;1.40;1.30;;;;;;;;;;5032932;28;20278;-63
2021/12/08 02:57:38;;;;;;;1.90;1.30;;;;;;;;;;5040325;28;21066;-63
2021/12/08 03:00:05;;;;;;;1.40;1.30;;;;;;;;;;5032158;28;20757;-63
2021/12/08 03:02:31;;;;;;;1.30;1.20;;;;;;;;;;5027038;28;20229;-63
2021/12/08 03:04:57;;;;;;;1.50;1.40;;;;;;;;;;5031063;28;20634;-63
2021/12/08 03:07:23;;;;;;;2.03;1.60;;;;;;;;;;5056494;28;20243;-63
2021/12/08 03:09:49;;;;;;;1.30;1.20;;;;;;;;;;5029363;28;20311;-64
2021/12/08 03:12:15;;;;;;;1.90;1.40;;;;;;;;;;5050339;28;20272;-63
2021/12/08 03:14:41;;;;;;;2.90;1.60;;;;;;;;;;5049873;28;20296;-62
2021/12/08 03:17:08;;;;;;;1.90;1.57;;;;;;;;;;5048874;28;20235;-63
2021/12/08 03:19:34;;;;;;;1.50;1.40;;;;;;;;;;5049058;28;20288;-63
2021/12/08 03:22:03;;;;;;;1.67;1.50;;;;;;;;;;5051900;28;20660;-63
2021/12/08 03:24:35;;;;;;;2.60;1.60;;;;;;;;;;5050809;28;20223;-63
2021/12/08 03:29:38;;;;;;;2.80;1.67;;;;;;;;;;5046624;28;20230;-63
2021/12/08 03:32:11;;;;;;;3.93;1.60;;;;;;;;;;5042054;28;20226;-63
2021/12/08 03:34:39;;;;;;;1.70;1.60;;;;;;;;;;5045590;28;20219;-61
2021/12/08 03:37:05;;;;;;;1.97;1.60;;;;;;;;;;5052286;28;20335;-63
2021/12/08 03:39:31;;;;;;;3.50;1.83;;;;;;;;;;5041015;28;20333;-63
2021/12/08 03:41:57;;;;;;;2.27;1.90;;;;;;;;;;5024392;28;20235;-63
2021/12/08 03:44:23;;;;;;;2.60;1.70;;;;;;;;;;5026695;28;20736;-64
2021/12/08 03:46:50;;;;;;;1.70;1.60;;;;;;;;;;5044732;28;20239;-62
2021/12/08 03:49:17;;;;;;;2.60;1.60;;;;;;;;;;5047405;28;20235;-63
2021/12/08 03:51:43;;;;;;;3.33;1.80;;;;;;;;;;5026807;28;20958;-63
2021/12/08 03:54:09;;;;;;;2.00;1.80;;;;;;;;;;5039030;28;20809;-63
2021/12/08 03:56:35;;;;;;;2.53;1.80;;;;;;;;;;5022142;28;20872;-64
2021/12/08 03:59:01;;;;;;;1.83;1.70;;;;;;;;;;5037251;28;20330;-63
2021/12/08 04:01:27;;;;;;;2.87;1.60;;;;;;;;;;5025984;28;20270;-62
2021/12/08 04:03:54;;;;;;;1.83;1.70;;;;;;;;;;5031507;28;20778;-62
2021/12/08 04:06:30;;;;;;;2.03;1.83;;;;;;;;;;5033494;28;20239;-62
2021/12/08 04:08:57;;;;;;;2.17;1.83;;;;;;;;;;5050925;28;20893;-62
2021/12/08 04:11:23;;;;;;;1.83;1.73;;;;;;;;;;5055913;28;20847;-63
2021/12/08 04:13:50;;;;;;;1.80;1.70;;;;;;;;;;5053699;28;20314;-63
2021/12/08 04:16:17;;;;;;;2.03;1.80;;;;;;;;;;5058781;28;20234;-64
2021/12/08 04:18:43;;;;;;;3.63;1.90;;;;;;;;;;5056984;28;20259;-61
2021/12/08 04:21:09;;;;;;;2.27;1.70;;;;;;;;;;5054778;28;20688;-63
2021/12/08 04:23:38;;;;;;;2.00;1.90;;;;;;;;;;5054200;28;20235;-64
2021/12/08 04:26:05;;;;;;;2.20;2.00;;;;;;;;;;5057910;28;20779;-63
2021/12/08 04:28:32;;;;;;;3.53;2.10;;;;;;;;;;5054163;28;20325;-63
2021/12/08 04:31:00;;;;;;;2.10;1.90;;;;;;;;;;5047796;28;20407;-62
2021/12/08 04:33:26;;;;;;;2.57;2.03;;;;;;;;;;5056318;28;20227;-63
2021/12/08 04:35:53;;;;;;;2.83;2.40;;;;;;;;;;5053727;28;20232;-63
2021/12/08 04:38:29;;;;;;;2.50;2.10;;;;;;;;;;5054239;28;20247;-62
2021/12/08 04:43:35;;;;;;;2.70;2.27;;;;;;;;;;5033114;28;20245;-62
2021/12/08 05:09:14;;;;;;;3.20;2.17;;;;;;;;;;5057845;28;21607;-64
2021/12/08 05:11:41;;;;;;;4.60;2.40;;;;;;;;;;5047376;28;20240;-64
2021/12/08 05:14:09;;;;;;;4.37;2.80;;;;;;;;;;5056957;28;20257;-62
2021/12/08 05:16:35;;;;;;;4.27;2.50;;;;;;;;;;5027668;28;20254;-63
2021/12/08 05:19:02;;;;;;;3.60;2.30;;;;;;;;;;5038995;28;20232;-62
2021/12/08 05:21:33;;;;;;;4.70;2.43;;;;;;;;;;5050106;28;20300;-62
2021/12/08 05:24:07;;;;;;;4.87;2.43;;;;;;;;;;5028460;28;20300;-63
2021/12/08 05:26:39;;;;;;;2.60;2.40;;;;;;;;;;5024228;28;20898;-62
2021/12/08 05:29:09;;;;;;;2.93;2.60;;;;;;;;;;5030645;28;20242;-62
2021/12/08 05:31:35;;;;;;;3.70;2.50;;;;;;;;;;5033959;28;20688;-62
2021/12/08 05:34:01;;;;;;;2.80;2.43;;;;;;;;;;5035799;28;20228;-63
2021/12/08 05:36:27;;;;;;;3.50;2.40;;;;;;;;;;5038448;28;20242;-63
2021/12/08 05:38:53;;;;;;;2.83;2.30;;;;;;;;;;5036268;28;20853;-62
2021/12/08 05:41:21;;;;;;;3.07;2.53;;;;;;;;;;5041662;28;20238;-62
2021/12/08 05:43:47;;;;;;;5.40;2.90;;;;;;;;;;5044323;28;20250;-63
2021/12/08 05:46:13;;;;;;;4.27;2.80;;;;;;;;;;5039375;28;20584;-64
2021/12/08 05:48:39;;;;;;;5.27;3.03;;;;;;;;;;5049023;28;20297;-64
2021/12/08 05:51:12;;;;;;;5.20;2.87;;;;;;;;;;5050144;28;20291;-62
2021/12/08 05:53:38;;;;;;;3.23;2.50;;;;;;;;;;5038562;28;20250;-63
2021/12/08 05:56:05;;;;;;;3.53;2.80;;;;;;;;;;5042687;28;20890;-62
2021/12/08 05:58:31;;;;;;;2.90;2.70;;;;;;;;;;5040971;28;21693;-63
2021/12/08 06:01:23;;;;;;;4.00;2.90;;;;;;;;;;5046780;28;20319;-63
2021/12/08 06:03:49;;;;;;;6.17;3.17;;;;;;;;;;5042526;28;20225;-62
2021/12/08 06:06:15;;;;;;;5.03;3.00;;;;;;;;;;5048090;28;20231;-62
2021/12/08 06:08:41;;;;;;;6.00;3.07;;;;;;;;;;5036696;28;20423;-64
2021/12/08 06:11:08;;;;;;;4.87;3.10;;;;;;;;;;5042885;28;20514;-62
2021/12/08 06:13:36;;;;;;;3.60;2.90;;;;;;;;;;5044385;28;20246;-63
2021/12/08 06:16:04;;;;;;;5.83;3.47;;;;;;;;;;5033871;28;20281;-61
2021/12/08 06:18:36;;;;;;;11.67;5.87;;;;;;;;;;5055694;28;20757;-63
2021/12/08 06:21:02;;;;;;;6.60;4.80;;;;;;;;;;5054016;28;20226;-62
2021/12/08 06:23:28;;;;;;;6.23;3.90;;;;;;;;;;5041700;28;20234;-62
2021/12/08 06:25:54;;;;;;;6.73;4.50;;;;;;;;;;5044915;28;20672;-62
2021/12/08 06:28:20;;;;;;;8.27;4.70;;;;;;;;;;5056186;28;20310;-63
2021/12/08 06:30:47;;;;;;;7.30;3.80;;;;;;;;;;5047846;28;20227;-62
2021/12/08 06:33:14;;;;;;;5.20;3.67;;;;;;;;;;5043579;28;20518;-62
2021/12/08 06:35:41;;;;;;;5.50;3.80;;;;;;;;;;5035035;28;20239;-62
2021/12/08 06:38:08;;;;;;;4.87;3.80;;;;;;;;;;5042762;28;20274;-61
2021/12/08 06:40:36;;;;;;;6.87;4.13;;;;;;;;;;5031809;28;20266;-62
2021/12/08 06:43:02;;;;;;;10.43;4.30;;;;;;;;;;5050109;28;20233;-62
2021/12/08 06:45:32;;;;;;;5.00;3.80;;;;;;;;;;5056590;28;20242;-63
2021/12/08 06:47:59;;;;;;;6.83;4.20;;;;;;;;;;5045159;28;20314;-63
2021/12/08 06:50:30;;;;;;;6.30;3.50;;;;;;;;;;5057679;28;20230;-62
2021/12/08 06:52:56;;;;;;;6.20;3.10;;;;;;;;;;5056588;28;20287;-63
2021/12/08 06:55:24;;;;;;;7.87;3.73;;;;;;;;;;5049608;28;20278;-62
2021/12/08 06:57:56;;;;;;;9.27;3.13;;;;;;;;;;5057073;28;20234;-63
2021/12/08 07:00:37;;;;;;;10.50;3.63;;;;;;;;;;5055345;28;20234;-62
2021/12/08 07:03:30;;;;;;;6.27;3.60;;;;;;;;;;5051937;28;20704;-61
2021/12/08 07:08:18;;;;;;;9.43;3.50;;;;;;;;;;5052546;28;20853;-61
2021/12/08 07:10:45;;;;;;;6.23;3.30;;;;;;;;;;5047450;28;20223;-62
2021/12/08 07:13:15;;;;;;;11.03;3.30;;;;;;;;;;5051969;28;20275;-62
2021/12/08 07:15:45;;;;;;;6.13;2.83;;;;;;;;;;5043005;28;20235;-62
2021/12/08 07:18:15;;;;;;;8.53;3.13;;;;;;;;;;5038550;28;20242;-62
2021/12/08 07:20:45;;;;;;;7.03;2.70;;;;;;;;;;5051235;28;20239;-61
2021/12/08 07:23:13;;;;;;;5.60;2.77;;;;;;;;;;5045865;28;20258;-61
2021/12/08 07:25:39;;;;;;;7.63;2.67;;;;;;;;;;5052826;28;20297;-62
2021/12/08 07:28:05;;;;;;;10.40;3.00;;;;;;;;;;5058332;28;20224;-61
2021/12/08 07:30:37;;;;;;;4.60;2.50;;;;;;;;;;5046080;28;20731;-62
2021/12/08 07:33:03;;;;;;;9.73;3.23;;;;;;;;;;5055408;28;20322;-63
2021/12/08 07:35:31;;;;;;;8.07;2.60;;;;;;;;;;5043783;28;20286;-62
2021/12/08 07:37:57;;;;;;;5.43;2.43;;;;;;;;;;5050912;28;20383;-61
2021/12/08 07:40:28;;;;;;;8.13;2.50;;;;;;;;;;5048729;28;20242;-61
2021/12/08 07:43:04;;;;;;;8.73;2.63;;;;;;;;;;5055802;28;20619;-63
2021/12/08 07:45:32;;;;;;;6.43;2.73;;;;;;;;;;5050543;28;20707;-62
2021/12/08 07:47:59;;;;;;;9.03;2.53;;;;;;;;;;5050640;28;20242;-61
2021/12/08 07:50:27;;;;;;;6.47;2.20;;;;;;;;;;5057609;28;20354;-63
2021/12/08 07:52:53;;;;;;;6.07;2.43;;;;;;;;;;5064598;28;21135;-63
2021/12/08 07:55:33;;;;;;;9.57;2.87;;;;;;;;;;5034324;28;20235;-62
2021/12/08 07:57:59;;;;;;;6.20;2.50;;;;;;;;;;5032087;28;20234;-62
2021/12/08 08:00:30;;;;;;;4.43;2.70;;;;;;;;;;5051172;28;20261;-62
2021/12/08 08:02:56;;;;;;;5.43;2.57;;;;;;;;;;5056064;28;20677;-62
2021/12/08 08:05:23;;;;;;;8.83;3.33;;;;;;;;;;5035829;28;20219;-62
2021/12/08 08:07:49;;;;;;;8.03;2.53;;;;;;;;;;5049318;28;20301;-63
2021/12/08 08:10:15;;;;;;;9.10;3.13;;;;;;;;;;5055284;28;20226;-63
2021/12/08 08:12:42;;;;;;;5.40;2.53;;;;;;;;;;5053211;28;20773;-62
2021/12/08 08:15:15;;;;;;;5.47;2.53;;;;;;;;;;5058853;28;20239;-63
2021/12/08 08:17:44;;;;;;;3.93;2.50;;;;;;;;;;5059461;28;20238;-63
2021/12/08 08:20:12;;;;;;;7.73;2.90;;;;;;;;;;5060302;28;20679;-63
2021/12/08 08:22:38;;;;;;;7.20;2.60;;;;;;;;;;5063054;28;20693;-62
2021/12/08 08:25:05;;;;;;;4.83;2.63;;;;;;;;;;5061529;28;20227;-63
2021/12/08 08:27:31;;;;;;;7.70;3.07;;;;;;;;;;5056931;28;20230;-62
2021/12/08 08:29:57;;;;;;;6.83;3.07;;;;;;;;;;5056656;28;20238;-64
2021/12/08 08:32:29;;;;;;;4.90;2.70;;;;;;;;;;5048736;28;20673;-62
2021/12/08 08:34:57;;;;;;;5.70;2.60;;;;;;;;;;5042580;28;20231;-62
2021/12/08 08:37:23;;;;;;;6.73;2.73;;;;;;;;;;5057572;28;20243;-63
2021/12/08 08:39:54;;;;;;;5.50;2.90;;;;;;;;;;5056623;28;20719;-62
2021/12/08 08:42:25;;;;;;;6.67;3.10;;;;;;;;;;5058959;28;20586;-61
2021/12/08 08:44:53;;;;;;;8.80;2.93;;;;;;;;;;5062295;28;20736;-62
2021/12/08 08:47:20;;;;;;;7.73;2.93;;;;;;;;;;5056014;28;20234;-63
2021/12/08 08:49:46;;;;;;;9.70;2.63;;;;;;;;;;5057502;28;20230;-62
2021/12/08 08:52:39;;;;;;;9.27;2.60;;;;;;;;;;5057136;28;20227;-62
2021/12/08 08:55:07;;;;;;;8.33;2.80;;;;;;;;;;5051846;28;20224;-63
2021/12/08 08:57:34;;;;;;;9.87;2.77;;;;;;;;;;5054626;28;20239;-62
2021/12/08 09:00:09;;;;;;;5.97;2.80;;;;;;;;;;5054802;28;20794;-61
2021/12/08 09:02:38;;;;;;;4.03;2.30;;;;;;;;;;5056451;28;20234;-62
2021/12/08 09:05:09;;;;;;;5.13;2.70;;;;;;;;;;5045302;28;20234;-62
2021/12/08 09:07:36;;;;;;;7.40;2.40;;;;;;;;;;5053754;28;20596;-62
2021/12/08 09:10:08;;;;;;;7.63;2.60;;;;;;;;;;5035492;28;20830;-63
2021/12/08 09:12:39;;;;;;;5.93;2.37;;;;;;;;;;5054596;28;20235;-63
2021/12/08 09:15:24;;;;;;;4.43;2.10;;;;;;;;;;5051222;28;20306;-62
2021/12/08 09:17:52;;;;;;;5.07;2.47;;;;;;;;;;5044150;28;20239;-63
2021/12/08 09:20:35;;;;;;;8.03;3.10;;;;;;;;;;5046972;28;20231;-63
2021/12/08 09:23:07;;;;;;;5.50;2.43;;;;;;;;;;5051028;28;20276;-62
2021/12/08 09:25:42;;;;;;;7.33;2.50;;;;;;;;;;5054539;28;20234;-62
2021/12/08 09:28:10;;;;;;;4.70;2.30;;;;;;;;;;5056871;28;20242;-62
2021/12/08 09:30:47;;;;;;;5.53;2.17;;;;;;;;;;5054381;28;20809;-63
2021/12/08 09:33:15;;;;;;;6.13;2.40;;;;;;;;;;5054189;28;20228;-63
2021/12/08 09:35:43;;;;;;;8.13;2.40;;;;;;;;;;5049534;28;20226;-62
2021/12/08 09:38:17;;;;;;;6.53;2.37;;;;;;;;;;5030497;28;20355;-63
2021/12/08 09:40:47;;;;;;;5.43;2.20;;;;;;;;;;5040100;28;20647;-63
2021/12/08 09:43:16;;;;;;;7.77;2.57;;;;;;;;;;5042449;28;20343;-63
2021/12/08 09:45:47;;;;;;;6.60;2.67;;;;;;;;;;5045916;28;20339;-62
2021/12/08 09:48:13;;;;;;;5.13;1.97;;;;;;;;;;5044778;28;20254;-62
2021/12/08 09:50:39;;;;;;;7.37;2.53;;;;;;;;;;5042874;28;20320;-62
2021/12/08 09:53:06;;;;;;;7.87;2.57;;;;;;;;;;5046014;28;20250;-62
2021/12/08 09:55:32;;;;;;;9.53;2.47;;;;;;;;;;5032659;28;25125;-63
2021/12/08 09:57:58;;;;;;;4.67;2.40;;;;;;;;;;5033367;28;20371;-63
2021/12/08 10:00:25;;;;;;;6.10;2.37;;;;;;;;;;5041122;28;20264;-62
2021/12/08 10:02:57;;;;;;;7.70;2.70;;;;;;;;;;5036342;28;20219;-62
2021/12/08 10:05:25;;;;;;;9.87;2.60;;;;;;;;;;5037136;28;20704;-62
2021/12/08 10:07:51;;;;;;;7.07;2.37;;;;;;;;;;5040615;28;20231;-63
2021/12/08 10:10:17;;;;;;;4.30;2.03;;;;;;;;;;5036441;28;21561;-62
2021/12/08 10:12:42;;;;;;;9.10;2.90;;;;;;;;;;5033859;28;20242;-63
2021/12/08 10:15:10;;;;;;;8.07;3.20;;;;;;;;;;5036155;28;20235;-64
2021/12/08 10:17:36;;;;;;;7.20;2.30;;;;;;;;;;5036230;28;20242;-64
2021/12/08 10:20:07;;;;;;;6.07;2.40;;;;;;;;;;5036508;28;20268;-64
2021/12/08 10:22:33;;;;;;;6.80;2.40;;;;;;;;;;5048003;28;20232;-62
2021/12/08 10:25:05;;;;;;;4.90;2.50;;;;;;;;;;5050471;28;20234;-62
2021/12/08 10:27:32;;;;;;;8.93;2.77;;;;;;;;;;5055581;28;20239;-63
2021/12/08 10:30:17;;;;;;;4.07;2.13;;;;;;;;;;5048114;28;20227;-62
2021/12/08 10:32:43;;;;;;;7.73;2.30;;;;;;;;;;5048525;28;20246;-62
2021/12/08 10:35:12;;;;;;;8.03;2.80;;;;;;;;;;5047774;28;20615;-62
2021/12/08 10:37:38;;;;;;;7.17;2.40;;;;;;;;;;5021818;28;20692;-63
2021/12/08 10:40:08;;;;;;;5.00;2.23;;;;;;;;;;5026569;28;20230;-61
2021/12/08 10:42:34;;;;;;;6.43;2.73;;;;;;;;;;5036979;28;20377;-63
2021/12/08 10:45:09;;;;;;;7.00;2.30;;;;;;;;;;5051745;28;20237;-63
2021/12/08 10:47:36;;;;;;;8.47;2.80;;;;;;;;;;5038243;28;20617;-63
2021/12/08 10:55:21;;;;;;;6.40;2.40;;;;;;;;;;5046225;28;20226;-63
2021/12/08 10:57:49;;;;;;;5.37;2.20;;;;;;;;;;5033712;28;20235;-63
2021/12/08 11:00:24;;;;;;;6.93;2.30;;;;;;;;;;5040675;28;20254;-62
2021/12/08 11:02:54;;;;;;;5.93;2.00;;;;;;;;;;5041947;28;20233;-62
2021/12/08 11:05:26;;;;;;;6.73;2.47;;;;;;;;;;5050907;28;20562;-63
2021/12/08 11:08:12;;;;;;;6.87;2.63;;;;;;;;;;5055191;28;20637;-63
2021/12/08 11:10:52;;;;;;;9.23;2.80;;;;;;;;;;5052340;28;20275;-62
2021/12/08 11:13:28;;;;;;;7.83;2.60;;;;;;;;;;5043939;28;20231;-63
2021/12/08 11:16:06;;;;;;;5.80;2.60;;;;;;;;;;5042476;28;20247;-63
2021/12/08 11:18:38;;;;;;;7.37;2.27;;;;;;;;;;5032682;28;20250;-64
2021/12/08 11:21:05;;;;;;;5.30;2.20;;;;;;;;;;5041796;28;20238;-62
2021/12/08 11:23:46;;;;;;;4.70;2.40;;;;;;;;;;5047833;28;20325;-62
2021/12/08 11:26:25;;;;;;;4.93;2.40;;;;;;;;;;5052475;28;20773;-63
2021/12/08 11:28:52;;;;;;;5.23;2.20;;;;;;;;;;5047680;28;20230;-62
2021/12/08 11:31:18;;;;;;;4.67;2.33;;;;;;;;;;5051612;28;20231;-62
2021/12/08 11:33:48;;;;;;;4.87;2.50;;;;;;;;;;5040331;28;20632;-63
2021/12/08 11:36:16;;;;;;;5.97;2.40;;;;;;;;;;5034107;28;20719;-62
2021/12/08 11:38:42;;;;;;;5.10;2.50;;;;;;;;;;5050299;28;20271;-62
2021/12/08 11:41:09;;;;;;;6.97;2.40;;;;;;;;;;5056756;28;20873;-63
2021/12/08 11:43:35;;;;;;;7.37;2.40;;;;;;;;;;5045897;28;20216;-62
2021/12/08 11:46:14;;;;;;;5.03;2.13;;;;;;;;;;5045917;28;20696;-62
2021/12/08 11:48:49;;;;;;;7.70;2.20;;;;;;;;;;5041899;28;20591;-62
2021/12/08 11:51:15;;;;;;;5.20;2.43;;;;;;;;;;5053019;28;20230;-63
2021/12/08 11:53:41;;;;;;;5.87;2.30;;;;;;;;;;5047872;28;20730;-63
2021/12/08 11:56:27;;;;;;;10.03;2.37;;;;;;;;;;5055659;28;20728;-62
2021/12/08 11:58:54;;;;;;;7.80;2.57;;;;;;;;;;5050955;28;20791;-62
2021/12/08 12:01:20;;;;;;;3.77;2.10;;;;;;;;;;5056146;28;20773;-62
2021/12/08 12:03:46;;;;;;;6.37;1.90;;;;;;;;;;5050048;28;20259;-62
2021/12/08 12:06:12;;;;;;;7.47;2.10;;;;;;;;;;5046452;28;20507;-63
2021/12/08 12:08:38;;;;;;;5.40;2.27;;;;;;;;;;5048986;28;20235;-62
2021/12/08 12:11:04;;;;;;;3.60;1.80;;;;;;;;;;5056925;28;20231;-63
2021/12/08 12:13:30;;;;;;;5.53;2.00;;;;;;;;;;5049585;28;20262;-62
2021/12/08 12:15:56;;;;;;;7.20;2.57;;;;;;;;;;5059283;28;20244;-62
2021/12/08 12:18:23;;;;;;;4.63;1.80;;;;;;;;;;5034675;28;20243;-62
2021/12/08 12:20:50;;;;;;;7.50;2.07;;;;;;;;;;5054688;28;20235;-62
2021/12/08 12:23:23;;;;;;;5.70;2.20;;;;;;;;;;5025641;28;20243;-64
2021/12/08 12:26:08;;;;;;;6.93;2.33;;;;;;;;;;5045398;28;20245;-62
2021/12/08 12:28:40;;;;;;;3.90;1.90;;;;;;;;;;5057402;28;20241;-61
2021/12/08 12:31:19;;;;;;;4.73;2.10;;;;;;;;;;5055702;28;21822;-62
2021/12/08 12:33:46;;;;;;;6.50;2.40;;;;;;;;;;5043837;28;20239;-62
2021/12/08 12:36:21;;;;;;;4.90;2.07;;;;;;;;;;5046253;28;20226;-62
2021/12/08 12:38:47;;;;;;;6.27;1.93;;;;;;;;;;5053331;28;20226;-64
2021/12/08 12:41:29;;;;;;;6.83;2.20;;;;;;;;;;5053306;28;20227;-61
2021/12/08 12:44:14;;;;;;;4.33;2.03;;;;;;;;;;5056402;28;20309;-61
2021/12/08 12:46:59;;;;;;;4.93;1.90;;;;;;;;;;5055247;28;20294;-62
2021/12/08 12:49:25;;;;;;;6.87;2.30;;;;;;;;;;5059713;28;20776;-61
2021/12/08 12:51:57;;;;;;;6.13;2.47;;;;;;;;;;5057433;28;20913;-61
2021/12/08 12:54:24;;;;;;;3.37;1.80;;;;;;;;;;5049771;28;20239;-61
2021/12/08 12:56:51;;;;;;;5.50;2.20;;;;;;;;;;5056105;28;20319;-61
2021/12/08 12:59:20;;;;;;;6.83;2.50;;;;;;;;;;5058844;28;20222;-62
2021/12/08 13:01:48;;;;;;;2.90;1.63;;;;;;;;;;5039312;28;20727;-62
2021/12/08 13:04:20;;;;;;;6.20;2.17;;;;;;;;;;5032569;28;20715;-62
2021/12/08 13:06:50;;;;;;;4.40;2.00;;;;;;;;;;5053029;28;20245;-61
2021/12/08 13:09:35;;;;;;;5.87;2.77;;;;;;;;;;5051133;28;20318;-61
2021/12/08 13:12:10;;;;;;;6.23;1.80;;;;;;;;;;5045025;28;20234;-61
2021/12/08 13:14:36;;;;;;;4.37;1.83;;;;;;;;;;5053090;28;20230;-60
2021/12/08 13:17:09;;;;;;;4.93;2.00;;;;;;;;;;5035971;28;21160;-61
2021/12/08 13:19:38;;;;;;;3.93;2.00;;;;;;;;;;5044764;28;20584;-61
2021/12/08 13:22:04;;;;;;;5.93;2.10;;;;;;;;;;5049415;28;20235;-61
2021/12/08 13:24:41;;;;;;;3.90;2.10;;;;;;;;;;5041081;28;20499;-61
2021/12/08 13:27:08;;;;;;;6.33;3.60;;;;;;;;;;5058516;28;20230;-61
2021/12/08 13:29:36;;;;;;;6.20;2.67;;;;;;;;;;5054139;28;20357;-61
2021/12/08 13:32:16;;;;;;;5.77;2.97;;;;;;;;;;5051042;28;20231;-61
2021/12/08 13:35:00;;;;;;;3.40;2.60;;;;;;;;;;5041810;28;20222;-61
2021/12/08 13:37:29;;;;;;;8.50;2.53;;;;;;;;;;5031549;28;20853;-62
2021/12/08 13:39:55;;;;;;;7.33;2.87;;;;;;;;;;5037824;28;20223;-62
2021/12/08 13:42:29;;;;;;;6.87;2.87;;;;;;;;;;5025248;28;20284;-63
2021/12/08 13:44:59;;;;;;;6.30;2.43;;;;;;;;;;5033517;28;20330;-62
2021/12/08 13:47:29;;;;;;;4.63;2.00;;;;;;;;;;5030714;28;20227;-62
2021/12/08 13:49:57;;;;;;;4.97;1.90;;;;;;;;;;5036505;28;20592;-62
2021/12/08 13:52:24;;;;;;;5.87;2.30;;;;;;;;;;5043818;28;20222;-62
2021/12/08 13:54:53;;;;;;;5.20;2.30;;;;;;;;;;5040626;28;20251;-62
2021/12/08 13:57:30;;;;;;;7.90;2.00;;;;;;;;;;5043473;28;20242;-62
2021/12/08 13:59:57;;;;;;;6.10;2.00;;;;;;;;;;5047124;28;20368;-62
2021/12/08 14:02:24;;;;;;;4.50;2.27;;;;;;;;;;5043513;28;20379;-62
2021/12/08 14:04:57;;;;;;;5.50;2.00;;;;;;;;;;5039585;28;20288;-62
2021/12/08 14:07:23;;;;;;;5.83;2.07;;;;;;;;;;5035472;28;20375;-61
2021/12/08 14:09:49;;;;;;;11.17;2.13;;;;;;;;;;5032642;28;20240;-62
2021/12/08 14:12:15;;;;;;;4.50;2.50;;;;;;;;;;5021671;28;20224;-62
2021/12/08 14:14:41;;;;;;;4.37;2.70;;;;;;;;;;5036002;28;20776;-62
2021/12/08 14:17:07;;;;;;;4.87;2.50;;;;;;;;;;5013659;28;20740;-62
2021/12/08 14:19:39;;;;;;;5.57;2.30;;;;;;;;;;5043040;28;20700;-62
2021/12/08 14:22:05;;;;;;;4.43;2.70;;;;;;;;;;5041438;28;20313;-62
2021/12/08 14:24:31;;;;;;;4.27;2.77;;;;;;;;;;5036704;28;20712;-61
2021/12/08 14:26:57;;;;;;;4.83;2.80;;;;;;;;;;5039842;28;20243;-62
2021/12/08 14:29:23;;;;;;;7.80;2.87;;;;;;;;;;5048593;28;20231;-62
2021/12/08 14:31:50;;;;;;;6.17;2.67;;;;;;;;;;5039533;28;20242;-62
2021/12/08 14:34:19;;;;;;;7.77;2.63;;;;;;;;;;5043118;28;20239;-62
2021/12/08 14:36:59;;;;;;;6.93;2.80;;;;;;;;;;5041743;28;20239;-61
2021/12/08 14:39:31;;;;;;;5.70;2.10;;;;;;;;;;5018294;28;20257;-61
2021/12/08 14:41:59;;;;;;;4.73;2.53;;;;;;;;;;5032745;28;20250;-62
2021/12/08 14:44:26;;;;;;;8.03;3.00;;;;;;;;;;5030374;28;20732;-61
2021/12/08 14:47:03;;;;;;;5.53;2.40;;;;;;;;;;5038839;28;20234;-62
2021/12/08 14:49:31;;;;;;;6.00;2.50;;;;;;;;;;5046719;28;20991;-62
2021/12/08 14:52:02;;;;;;;8.50;2.67;;;;;;;;;;5045582;28;21118;-61
2021/12/08 14:54:28;;;;;;;5.80;2.63;;;;;;;;;;5048068;28;20738;-60
2021/12/08 14:57:03;;;;;;;6.87;2.40;;;;;;;;;;5046943;28;20234;-62
2021/12/08 14:59:29;;;;;;;6.77;2.53;;;;;;;;;;5047684;28;20226;-62
2021/12/08 15:01:55;;;;;;;4.67;2.37;;;;;;;;;;5043577;28;20231;-62
2021/12/08 15:04:21;;;;;;;4.83;2.30;;;;;;;;;;5037967;28;20234;-62
2021/12/08 15:06:57;;;;;;;6.27;2.93;;;;;;;;;;5042198;28;20642;-62
2021/12/08 15:09:26;;;;;;;3.97;2.13;;;;;;;;;;5044650;28;20800;-62
2021/12/08 15:11:53;;;;;;;6.20;2.60;;;;;;;;;;5050235;28;20238;-62
2021/12/08 15:14:19;;;;;;;4.97;2.43;;;;;;;;;;5045723;28;20242;-62
2021/12/08 15:16:46;;;;;;;7.40;2.50;;;;;;;;;;5023552;28;20259;-61
2021/12/08 15:19:13;;;;;;;5.70;2.40;;;;;;;;;;5044392;28;20243;-62
2021/12/08 15:21:40;;;;;;;4.87;2.57;;;;;;;;;;5039075;28;20220;-61
2021/12/08 15:24:07;;;;;;;6.40;2.33;;;;;;;;;;5029780;28;20235;-61
2021/12/08 15:26:33;;;;;;;11.23;2.60;;;;;;;;;;5019166;28;20235;-66
2021/12/08 15:29:00;;;;;;;5.67;2.30;;;;;;;;;;5006724;28;20245;-63
2021/12/08 15:31:33;;;;;;;7.27;2.80;;;;;;;;;;5019356;28;20274;-63
2021/12/08 15:33:59;;;;;;;5.90;2.60;;;;;;;;;;5006668;28;20238;-62
2021/12/08 15:36:26;;;;;;;6.43;2.80;;;;;;;;;;5038670;28;20231;-63
2021/12/08 15:38:53;;;;;;;4.77;2.70;;;;;;;;;;5044460;28;20246;-64
2021/12/08 15:41:21;;;;;;;6.13;2.60;;;;;;;;;;5047276;28;20239;-63
2021/12/08 15:43:47;;;;;;;6.23;2.80;;;;;;;;;;5051522;28;20326;-62
2021/12/08 15:46:15;;;;;;;5.67;2.97;;;;;;;;;;5051941;28;20236;-62
2021/12/08 15:48:44;;;;;;;6.37;2.57;;;;;;;;;;5049010;28;20243;-63